sensor_id;sensor_type;location;lat;lon;timestamp;P1;durP1;ratioP1;P2;durP2;ratioP2
20888;SDS011;10604;51.976;7.594;2023-09-08T12:18:48;5.75;;;4.55;;
20888;SDS011;10604;51.976;7.594;2023-09-08T12:21:14;4.65;;;4.13;;
20888;SDS011;10604;51.976;7.594;2023-09-08T12:23:46;6.07;;;4.80;;
20888;SDS011;10604;51.976;7.594;2023-09-08T12:26:15;5.13;;;4.63;;
20888;SDS011;10604;51.976;7.594;2023-09-08T12:28:44;6.82;;;4.65;;
20888;SDS011;10604;51.976;7.594;2023-09-08T12:31:10;7.25;;;4.30;;
20888;SDS011;10604;51.976;7.594;2023-09-08T12:33:37;9.40;;;4.53;;
20888;SDS011;10604;51.976;7.594;2023-09-08T12:36:24;6.40;;;4.55;;
20888;SDS011;10604;51.976;7.594;2023-09-08T12:38:50;9.07;;;4.80;;
20888;SDS011;10604;51.976;7.594;2023-09-08T12:41:16;4.72;;;4.32;;
20888;SDS011;10604;51.976;7.594;2023-09-08T12:43:42;4.22;;;3.83;;
20888;SDS011;10604;51.976;7.594;2023-09-08T12:46:07;4.43;;;3.97;;
20888;SDS011;10604;51.976;7.594;2023-09-08T12:48:33;4.97;;;4.57;;
20888;SDS011;10604;51.976;7.594;2023-09-08T12:50:58;4.90;;;4.50;;
20888;SDS011;10604;51.976;7.594;2023-09-08T12:53:24;5.05;;;4.55;;
20888;SDS011;10604;51.976;7.594;2023-09-08T12:55:49;7.77;;;4.97;;
20888;SDS011;10604;51.976;7.594;2023-09-08T12:58:15;5.13;;;4.63;;
20888;SDS011;10604;51.976;7.594;2023-09-08T13:22:31;4.95;;;4.43;;
20888;SDS011;10604;51.976;7.594;2023-09-08T13:24:56;7.07;;;4.57;;
20888;SDS011;10604;51.976;7.594;2023-09-08T13:27:22;5.15;;;3.88;;
20888;SDS011;10604;51.976;7.594;2023-09-08T13:29:47;5.30;;;4.03;;
20888;SDS011;10604;51.976;7.594;2023-09-08T13:32:13;4.43;;;3.90;;
20888;SDS011;10604;51.976;7.594;2023-09-08T13:34:38;5.77;;;4.30;;
20888;SDS011;10604;51.976;7.594;2023-09-08T13:37:04;4.80;;;3.80;;
20888;SDS011;10604;51.976;7.594;2023-09-08T13:39:29;5.40;;;3.78;;
20888;SDS011;10604;51.976;7.594;2023-09-08T13:41:55;4.30;;;3.80;;
20888;SDS011;10604;51.976;7.594;2023-09-08T13:44:24;4.20;;;3.90;;
20888;SDS011;10604;51.976;7.594;2023-09-08T13:46:50;4.10;;;3.70;;
20888;SDS011;10604;51.976;7.594;2023-09-08T13:49:16;5.95;;;4.47;;
20888;SDS011;10604;51.976;7.594;2023-09-08T13:51:42;4.43;;;4.03;;
20888;SDS011;10604;51.976;7.594;2023-09-08T13:54:08;4.28;;;3.85;;
20888;SDS011;10604;51.976;7.594;2023-09-08T13:56:34;5.00;;;3.83;;
20888;SDS011;10604;51.976;7.594;2023-09-08T13:59:02;4.63;;;3.97;;
20888;SDS011;10604;51.976;7.594;2023-09-08T14:01:28;4.60;;;4.03;;
20888;SDS011;10604;51.976;7.594;2023-09-08T14:03:54;4.05;;;3.58;;
20888;SDS011;10604;51.976;7.594;2023-09-08T14:06:22;4.47;;;3.80;;
20888;SDS011;10604;51.976;7.594;2023-09-08T14:08:49;6.32;;;4.03;;
20888;SDS011;10604;51.976;7.594;2023-09-08T14:11:14;4.83;;;3.80;;
20888;SDS011;10604;51.976;7.594;2023-09-08T14:13:40;5.77;;;3.87;;
20888;SDS011;10604;51.976;7.594;2023-09-08T14:16:05;5.80;;;3.90;;
20888;SDS011;10604;51.976;7.594;2023-09-08T14:18:30;5.90;;;3.70;;
20888;SDS011;10604;51.976;7.594;2023-09-08T14:20:56;5.13;;;3.80;;
20888;SDS011;10604;51.976;7.594;2023-09-08T14:23:21;6.05;;;4.00;;
20888;SDS011;10604;51.976;7.594;2023-09-08T14:25:46;4.33;;;3.93;;
20888;SDS011;10604;51.976;7.594;2023-09-08T14:28:12;5.20;;;3.90;;
20888;SDS011;10604;51.976;7.594;2023-09-08T14:30:37;5.63;;;3.97;;
20888;SDS011;10604;51.976;7.594;2023-09-08T14:33:03;7.50;;;3.90;;
20888;SDS011;10604;51.976;7.594;2023-09-08T14:35:31;5.25;;;3.70;;
20888;SDS011;10604;51.976;7.594;2023-09-08T14:37:57;4.70;;;3.80;;
20888;SDS011;10604;51.976;7.594;2023-09-08T14:40:22;4.60;;;4.00;;
20888;SDS011;10604;51.976;7.594;2023-09-08T14:42:48;5.47;;;3.70;;
20888;SDS011;10604;51.976;7.594;2023-09-08T14:45:13;5.78;;;3.67;;
20888;SDS011;10604;51.976;7.594;2023-09-08T14:47:39;4.40;;;4.00;;
20888;SDS011;10604;51.976;7.594;2023-09-08T14:50:04;4.77;;;3.70;;
20888;SDS011;10604;51.976;7.594;2023-09-08T14:52:30;5.30;;;3.80;;
20888;SDS011;10604;51.976;7.594;2023-09-08T14:54:55;4.63;;;3.67;;
20888;SDS011;10604;51.976;7.594;2023-09-08T14:57:21;4.50;;;3.70;;
20888;SDS011;10604;51.976;7.594;2023-09-08T14:59:49;5.00;;;4.00;;
20888;SDS011;10604;51.976;7.594;2023-09-08T15:02:19;4.70;;;4.00;;
20888;SDS011;10604;51.976;7.594;2023-09-08T15:04:44;4.80;;;4.35;;
20888;SDS011;10604;51.976;7.594;2023-09-08T15:07:09;6.18;;;4.35;;
20888;SDS011;10604;51.976;7.594;2023-09-08T15:09:35;4.43;;;4.03;;
20888;SDS011;10604;51.976;7.594;2023-09-08T15:12:00;4.23;;;3.83;;
20888;SDS011;10604;51.976;7.594;2023-09-08T15:14:26;4.87;;;4.17;;
20888;SDS011;10604;51.976;7.594;2023-09-08T15:16:51;4.65;;;4.25;;
20888;SDS011;10604;51.976;7.594;2023-09-08T15:19:17;5.83;;;4.27;;
20888;SDS011;10604;51.976;7.594;2023-09-08T15:21:42;6.77;;;4.10;;
20888;SDS011;10604;51.976;7.594;2023-09-08T15:24:08;7.60;;;4.20;;
20888;SDS011;10604;51.976;7.594;2023-09-08T15:26:33;7.03;;;4.17;;
20888;SDS011;10604;51.976;7.594;2023-09-08T15:28:58;4.45;;;4.05;;
20888;SDS011;10604;51.976;7.594;2023-09-08T15:31:24;4.60;;;4.20;;
20888;SDS011;10604;51.976;7.594;2023-09-08T15:33:50;4.73;;;4.20;;
20888;SDS011;10604;51.976;7.594;2023-09-08T15:36:16;4.55;;;4.00;;
20888;SDS011;10604;51.976;7.594;2023-09-08T15:38:42;4.47;;;4.07;;
20888;SDS011;10604;51.976;7.594;2023-09-08T15:43:33;6.37;;;4.30;;
20888;SDS011;10604;51.976;7.594;2023-09-08T15:46:03;5.60;;;4.10;;
20888;SDS011;10604;51.976;7.594;2023-09-08T15:48:28;5.07;;;4.18;;
20888;SDS011;10604;51.976;7.594;2023-09-08T15:50:54;5.03;;;4.33;;
20888;SDS011;10604;51.976;7.594;2023-09-08T15:53:19;4.83;;;4.30;;
20888;SDS011;10604;51.976;7.594;2023-09-08T15:55:44;4.83;;;4.43;;
20888;SDS011;10604;51.976;7.594;2023-09-08T15:58:10;4.83;;;4.23;;
20888;SDS011;10604;51.976;7.594;2023-09-08T16:00:35;4.30;;;3.90;;
20888;SDS011;10604;51.976;7.594;2023-09-08T16:03:00;5.45;;;4.30;;
20888;SDS011;10604;51.976;7.594;2023-09-08T16:05:27;4.82;;;4.15;;
20888;SDS011;10604;51.976;7.594;2023-09-08T16:07:52;6.55;;;4.60;;
20888;SDS011;10604;51.976;7.594;2023-09-08T16:10:18;5.63;;;4.60;;
20888;SDS011;10604;51.976;7.594;2023-09-08T16:12:43;5.45;;;4.40;;
20888;SDS011;10604;51.976;7.594;2023-09-08T16:15:09;4.97;;;4.57;;
20888;SDS011;10604;51.976;7.594;2023-09-08T16:17:37;5.23;;;4.73;;
20888;SDS011;10604;51.976;7.594;2023-09-08T16:20:02;5.97;;;4.85;;
20888;SDS011;10604;51.976;7.594;2023-09-08T16:22:28;6.13;;;4.90;;
20888;SDS011;10604;51.976;7.594;2023-09-08T16:24:53;5.50;;;4.63;;
20888;SDS011;10604;51.976;7.594;2023-09-08T16:27:19;6.50;;;4.87;;
20888;SDS011;10604;51.976;7.594;2023-09-08T16:29:44;5.72;;;4.80;;
20888;SDS011;10604;51.976;7.594;2023-09-08T16:32:10;5.70;;;4.93;;
20888;SDS011;10604;51.976;7.594;2023-09-08T16:34:36;4.95;;;4.55;;
20888;SDS011;10604;51.976;7.594;2023-09-08T16:37:02;5.90;;;5.30;;
20888;SDS011;10604;51.976;7.594;2023-09-08T16:39:27;5.93;;;4.73;;
20888;SDS011;10604;51.976;7.594;2023-09-08T16:41:53;5.33;;;4.70;;
20888;SDS011;10604;51.976;7.594;2023-09-08T16:44:18;5.32;;;4.82;;
20888;SDS011;10604;51.976;7.594;2023-09-08T16:46:43;5.10;;;4.67;;
20888;SDS011;10604;51.976;7.594;2023-09-08T16:49:09;6.40;;;4.60;;
20888;SDS011;10604;51.976;7.594;2023-09-08T16:51:34;5.83;;;4.63;;
20888;SDS011;10604;51.976;7.594;2023-09-08T16:53:59;4.87;;;4.40;;
20888;SDS011;10604;51.976;7.594;2023-09-08T16:56:25;4.93;;;4.53;;
20888;SDS011;10604;51.976;7.594;2023-09-08T16:58:50;6.70;;;4.80;;
20888;SDS011;10604;51.976;7.594;2023-09-08T17:01:15;6.55;;;4.65;;
20888;SDS011;10604;51.976;7.594;2023-09-08T17:03:41;7.40;;;5.00;;
20888;SDS011;10604;51.976;7.594;2023-09-08T17:06:06;5.83;;;5.03;;
20888;SDS011;10604;51.976;7.594;2023-09-08T17:08:31;6.93;;;5.00;;
20888;SDS011;10604;51.976;7.594;2023-09-08T17:11:02;5.13;;;4.63;;
20888;SDS011;10604;51.976;7.594;2023-09-08T17:13:28;6.10;;;5.03;;
20888;SDS011;10604;51.976;7.594;2023-09-08T17:15:53;6.10;;;4.82;;
20888;SDS011;10604;51.976;7.594;2023-09-08T17:18:19;5.67;;;5.00;;
20888;SDS011;10604;51.976;7.594;2023-09-08T17:20:45;5.63;;;5.03;;
20888;SDS011;10604;51.976;7.594;2023-09-08T17:23:11;7.18;;;4.78;;
20888;SDS011;10604;51.976;7.594;2023-09-08T17:25:36;5.60;;;5.00;;
20888;SDS011;10604;51.976;7.594;2023-09-08T17:28:02;5.30;;;4.73;;
20888;SDS011;10604;51.976;7.594;2023-09-08T17:30:27;5.47;;;4.90;;
20888;SDS011;10604;51.976;7.594;2023-09-08T17:32:53;5.82;;;5.20;;
20888;SDS011;10604;51.976;7.594;2023-09-08T17:35:19;6.37;;;5.23;;
20888;SDS011;10604;51.976;7.594;2023-09-08T17:37:44;6.95;;;5.40;;
20888;SDS011;10604;51.976;7.594;2023-09-08T17:40:09;5.47;;;4.90;;
20888;SDS011;10604;51.976;7.594;2023-09-08T17:42:35;5.77;;;5.13;;
